Accueil
METAR-TAF:

METAR-TAF

Aéroports :

Aéroport de Biarritz Pays Basque

Biarritz, France

latitude: 43-28N, longitude: 001-32W, altitude: 75 m

Observation

Le bulletin a été fait il y a 19 minutes, à 22:30 UTC
Vent 3 kt de est
Température 12°C
Humidité 100%
Pression 1024 hPa
Visibilité: 7000 m
pluie faible

METAR: LFBZ 062230Z AUTO 09003KT 7000 -RA BKN002/// BKN026/// BKN044/// ///TCU 12/12 Q1024

Heure: 00:49 (22:49 UTC)


TAF: absent

Observations et prévisions météorologiques de plus de 4000 aéroports (messages METAR et TAF).

Les stations disponibles sont représentées par des disques jaunes et rouges sur la carte.

Passer la souris dessus pour voir le nom de la station.

Cliquer dessus pour voir les observations et prévisions météorologiques.

Pour changer de carte: cliquez sur les boutons verts avec une croix noire pour zoomer, sur le bouton vert avec un tiret pour effectuer un zoom arrière, ou sur les flèches vertes pour les cartes adjacentes.


METAR-TAF: